Time,TemperatureF,DewpointF,PressureIn,WindDirection,WindDirectionDegrees,WindSpeedMPH,WindSpeedGustMPH,Humidity,HourlyPrecipIn,Conditions,Clouds,dailyrainin,SoftwareType,DateUTC
2013-11-30 00:02:00,30.7,25.3,30.41,East,92,1.0,4.0,80,0.00,,,0.00,Wunderground v.1.15,2013-11-30 05:02:00,
2013-11-30 00:04:00,30.7,24.7,30.41,East,89,2.0,4.0,78,0.00,,,0.00,Wunderground v.1.15,2013-11-30 05:04:00,
2013-11-30 00:08:00,30.7,25.3,30.41,East,79,2.0,6.0,80,0.00,,,0.00,Wunderground v.1.15,2013-11-30 05:08:00,
2013-11-30 00:10:00,30.9,25.5,30.41,East,83,3.0,6.0,80,0.00,,,0.00,Wunderground v.1.15,2013-11-30 05:10:00,
2013-11-30 00:11:00,30.9,24.8,30.41,ENE,59,3.0,5.0,78,0.00,,,0.00,Wunderground v.1.15,2013-11-30 05:11:00,
2013-11-30 00:16:00,31.0,25.6,30.40,East,96,4.0,5.0,80,0.00,,,0.00,Wunderground v.1.15,2013-11-30 05:16:00,
2013-11-30 00:17:00,31.0,26.1,30.40,East,93,3.0,5.0,82,0.00,,,0.00,Wunderground v.1.15,2013-11-30 05:17:00,
2013-11-30 00:23:00,31.0,24.9,30.40,ESE,107,2.0,3.0,78,0.00,,,0.00,Wunderground v.1.15,2013-11-30 05:23:00,
2013-11-30 00:28:00,30.9,26.1,30.40,East,90,2.0,4.0,82,0.00,,,0.00,Wunderground v.1.15,2013-11-30 05:28:00,
2013-11-30 00:34:00,31.3,25.5,30.40,East,90,3.0,6.0,79,0.00,,,0.00,Wunderground v.1.15,2013-11-30 05:34:00,
2013-11-30 00:39:00,31.3,24.9,30.40,East,92,3.0,6.0,77,0.00,,,0.00,Wunderground v.1.15,2013-11-30 05:39:00,
2013-11-30 00:45:00,31.5,24.8,30.40,East,99,3.0,8.0,76,0.00,,,0.00,Wunderground v.1.15,2013-11-30 05:45:00,
2013-11-30 00:50:00,31.5,25.7,30.40,East,83,3.0,8.0,79,0.00,,,0.00,Wunderground v.1.15,2013-11-30 05:50:00,
2013-11-30 00:56:00,31.3,25.8,30.40,ESE,103,3.0,6.0,80,0.00,,,0.00,Wunderground v.1.15,2013-11-30 05:56:00,
2013-11-30 01:01:00,31.3,25.5,30.40,East,99,2.0,2.0,79,0.00,,,0.00,Wunderground v.1.15,2013-11-30 06:01:00,
2013-11-30 01:06:00,31.3,24.9,30.40,East,95,2.0,11.0,77,0.00,,,0.00,Wunderground v.1.15,2013-11-30 06:06:00,
2013-11-30 01:12:00,31.3,25.2,30.40,East,89,2.0,2.0,78,0.00,,,0.00,Wunderground v.1.15,2013-11-30 06:12:00,
2013-11-30 01:18:00,31.3,25.2,30.39,ENE,73,1.0,5.0,78,0.00,,,0.00,Wunderground v.1.15,2013-11-30 06:18:00,
2013-11-30 01:23:00,31.3,25.8,30.39,East,79,1.0,1.0,80,0.00,,,0.00,Wunderground v.1.15,2013-11-30 06:23:00,
2013-11-30 01:28:00,31.3,25.2,30.39,East,88,1.0,3.0,78,0.00,,,0.00,Wunderground v.1.15,2013-11-30 06:28:00,
2013-11-30 01:34:00,31.3,25.5,30.39,East,93,1.0,2.0,79,0.00,,,0.00,Wunderground v.1.15,2013-11-30 06:34:00,
2013-11-30 01:39:00,31.3,25.2,30.39,East,83,1.0,3.0,78,0.00,,,0.00,Wunderground v.1.15,2013-11-30 06:39:00,
2013-11-30 01:45:00,31.3,24.6,30.39,ESE,114,1.0,3.0,76,0.00,,,0.00,Wunderground v.1.15,2013-11-30 06:45:00,
2013-11-30 01:50:00,31.5,25.4,30.39,East,99,2.0,5.0,78,0.00,,,0.00,Wunderground v.1.15,2013-11-30 06:50:00,
2013-11-30 01:56:00,31.5,25.7,30.39,East,86,2.0,7.0,79,0.00,,,0.00,Wunderground v.1.15,2013-11-30 06:56:00,
2013-11-30 02:01:00,31.5,25.1,30.38,ENE,73,1.0,1.0,77,0.00,,,0.00,Wunderground v.1.15,2013-11-30 07:01:00,
2013-11-30 02:06:00,31.5,25.1,30.38,ESE,106,1.0,11.0,77,0.00,,,0.00,Wunderground v.1.15,2013-11-30 07:06:00,
2013-11-30 02:12:00,31.3,25.8,30.38,East,85,2.0,2.0,80,0.00,,,0.00,Wunderground v.1.15,2013-11-30 07:12:00,
2013-11-30 02:17:00,31.2,25.7,30.38,ESE,109,2.0,2.0,80,0.00,,,0.00,Wunderground v.1.15,2013-11-30 07:17:00,
2013-11-30 02:22:00,31.3,25.5,30.38,East,83,1.0,3.0,79,0.00,,,0.00,Wunderground v.1.15,2013-11-30 07:22:00,
2013-11-30 02:28:00,31.3,25.5,30.38,East,93,2.0,3.0,79,0.00,,,0.00,Wunderground v.1.15,2013-11-30 07:28:00,
2013-11-30 02:33:00,31.5,26.0,30.38,ENE,76,2.0,7.0,80,0.00,,,0.00,Wunderground v.1.15,2013-11-30 07:33:00,
2013-11-30 02:39:00,31.5,26.3,30.38,East,88,2.0,7.0,81,0.00,,,0.00,Wunderground v.1.15,2013-11-30 07:39:00,
2013-11-30 02:44:00,31.5,25.7,30.38,ENE,78,2.0,7.0,79,0.00,,,0.00,Wunderground v.1.15,2013-11-30 07:44:00,
2013-11-30 02:49:00,31.5,25.4,30.37,East,88,2.0,7.0,78,0.00,,,0.00,Wunderground v.1.15,2013-11-30 07:49:00,
2013-11-30 02:55:00,31.5,26.0,30.37,East,93,2.0,7.0,80,0.00,,,0.00,Wunderground v.1.15,2013-11-30 07:55:00,
2013-11-30 03:00:00,31.5,26.3,30.36,ENE,75,2.0,7.0,81,0.00,,,0.00,Wunderground v.1.15,2013-11-30 08:00:00,
2013-11-30 03:05:00,31.5,26.9,30.36,ENE,78,1.0,7.0,83,0.00,,,0.00,Wunderground v.1.15,2013-11-30 08:05:00,
2013-11-30 03:11:00,31.5,27.2,30.36,ENE,71,1.0,2.0,84,0.00,,,0.00,Wunderground v.1.15,2013-11-30 08:11:00,
2013-11-30 03:16:00,31.6,26.7,30.36,ENE,72,1.0,2.0,82,0.00,,,0.00,Wunderground v.1.15,2013-11-30 08:16:00,
2013-11-30 03:21:00,31.6,26.7,30.36,East,100,1.0,3.0,82,0.00,,,0.00,Wunderground v.1.15,2013-11-30 08:21:00,
2013-11-30 03:27:00,31.6,25.8,30.36,East,96,2.0,7.0,79,0.00,,,0.00,Wunderground v.1.15,2013-11-30 08:27:00,
2013-11-30 03:32:00,31.8,25.4,30.35,East,96,2.0,2.0,77,0.00,,,0.00,Wunderground v.1.15,2013-11-30 08:32:00,
2013-11-30 03:38:00,31.9,26.4,30.35,East,92,1.0,2.0,80,0.00,,,0.00,Wunderground v.1.15,2013-11-30 08:38:00,
2013-11-30 03:43:00,31.9,25.5,30.35,East,89,2.0,6.0,77,0.00,,,0.00,Wunderground v.1.15,2013-11-30 08:43:00,
2013-11-30 03:49:00,31.9,25.8,30.34,ENE,76,2.0,6.0,78,0.00,,,0.00,Wunderground v.1.15,2013-11-30 08:49:00,
2013-11-30 03:54:00,31.9,26.4,30.34,ENE,73,1.0,7.0,80,0.00,,,0.00,Wunderground v.1.15,2013-11-30 08:54:00,
2013-11-30 03:59:00,31.9,27.3,30.34,ESE,106,1.0,7.0,83,0.00,,,0.00,Wunderground v.1.15,2013-11-30 08:59:00,
2013-11-30 04:05:00,31.8,27.2,30.34,ENE,78,2.0,7.0,83,0.00,,,0.00,Wunderground v.1.15,2013-11-30 09:05:00,
2013-11-30 04:11:00,31.8,27.5,30.34,ESE,107,2.0,2.0,84,0.00,,,0.00,Wunderground v.1.15,2013-11-30 09:11:00,
2013-11-30 04:16:00,31.9,26.7,30.33,East,96,2.0,5.0,81,0.00,,,0.00,Wunderground v.1.15,2013-11-30 09:16:00,
2013-11-30 04:21:00,31.9,26.7,30.33,East,96,2.0,2.0,81,0.00,,,0.00,Wunderground v.1.15,2013-11-30 09:21:00,
2013-11-30 04:27:00,31.9,27.0,30.33,East,93,1.0,3.0,82,0.00,,,0.00,Wunderground v.1.15,2013-11-30 09:27:00,
2013-11-30 04:32:00,31.8,27.5,30.33,East,93,1.0,3.0,84,0.00,,,0.00,Wunderground v.1.15,2013-11-30 09:32:00,
2013-11-30 04:37:00,31.8,26.9,30.33,East,83,1.0,4.0,82,0.00,,,0.00,Wunderground v.1.15,2013-11-30 09:37:00,
2013-11-30 04:43:00,31.8,26.3,30.33,East,97,1.0,2.0,80,0.00,,,0.00,Wunderground v.1.15,2013-11-30 09:43:00,
2013-11-30 04:48:00,31.8,26.6,30.33,East,86,1.0,3.0,81,0.00,,,0.00,Wunderground v.1.15,2013-11-30 09:48:00,
2013-11-30 04:54:00,31.8,26.3,30.33,East,93,1.0,5.0,80,0.00,,,0.00,Wunderground v.1.15,2013-11-30 09:54:00,
2013-11-30 04:59:00,31.8,26.6,30.33,East,85,2.0,5.0,81,0.00,,,0.00,Wunderground v.1.15,2013-11-30 09:59:00,
2013-11-30 05:05:00,31.6,27.0,30.32,East,95,2.0,8.0,83,0.00,,,0.00,Wunderground v.1.15,2013-11-30 10:05:00,
2013-11-30 05:11:00,31.5,27.2,30.32,East,99,1.0,5.0,84,0.00,,,0.00,Wunderground v.1.15,2013-11-30 10:11:00,
2013-11-30 05:16:00,31.3,27.3,30.32,East,82,1.0,5.0,85,0.00,,,0.00,Wunderground v.1.15,2013-11-30 10:16:00,
2013-11-30 05:22:00,31.2,27.2,30.32,East,83,1.0,2.0,85,0.00,,,0.00,Wunderground v.1.15,2013-11-30 10:22:00,
2013-11-30 05:27:00,31.2,28.3,30.32,East,83,1.0,2.0,89,0.00,,,0.00,Wunderground v.1.15,2013-11-30 10:27:00,
2013-11-30 05:32:00,30.9,28.3,30.32,East,83,0.0,1.0,90,0.00,,,0.00,Wunderground v.1.15,2013-11-30 10:32:00,
2013-11-30 05:38:00,30.9,27.8,30.32,East,82,1.0,3.0,88,0.00,,,0.00,Wunderground v.1.15,2013-11-30 10:38:00,
2013-11-30 05:43:00,30.6,27.7,30.32,East,90,2.0,2.0,89,0.00,,,0.00,Wunderground v.1.15,2013-11-30 10:43:00,
2013-11-30 05:49:00,30.6,27.2,30.31,ENE,73,1.0,2.0,87,0.00,,,0.00,Wunderground v.1.15,2013-11-30 10:49:00,
2013-11-30 05:54:00,30.6,27.5,30.31,East,79,0.0,2.0,88,0.00,,,0.00,Wunderground v.1.15,2013-11-30 10:54:00,
2013-11-30 05:59:00,30.7,27.0,30.31,East,80,0.0,2.0,86,0.00,,,0.00,Wunderground v.1.15,2013-11-30 10:59:00,
2013-11-30 06:05:00,30.6,26.9,30.31,East,86,0.0,7.0,86,0.00,,,0.00,Wunderground v.1.15,2013-11-30 11:05:00,
2013-11-30 06:11:00,30.6,28.0,30.31,ENE,78,0.0,0.0,90,0.00,,,0.00,Wunderground v.1.15,2013-11-30 11:11:00,
2013-11-30 06:16:00,30.4,27.5,30.31,East,83,0.0,1.0,89,0.00,,,0.00,Wunderground v.1.15,2013-11-30 11:16:00,
2013-11-30 06:21:00,30.4,27.3,30.31,East,83,0.0,0.0,88,0.00,,,0.00,Wunderground v.1.15,2013-11-30 11:21:00,
2013-11-30 06:27:00,30.3,27.2,30.31,East,83,0.0,1.0,88,0.00,,,0.00,Wunderground v.1.15,2013-11-30 11:27:00,
2013-11-30 06:33:00,30.1,27.0,30.30,East,100,0.0,0.0,88,0.00,,,0.00,Wunderground v.1.15,2013-11-30 11:33:00,
2013-11-30 06:39:00,30.3,27.2,30.30,ENE,72,0.0,2.0,88,0.00,,,0.00,Wunderground v.1.15,2013-11-30 11:39:00,
2013-11-30 06:44:00,30.1,27.3,30.30,ENE,72,0.0,0.0,89,0.00,,,0.00,Wunderground v.1.15,2013-11-30 11:44:00,
2013-11-30 06:49:00,30.1,27.0,30.31,ENE,75,0.0,0.0,88,0.00,,,0.00,Wunderground v.1.15,2013-11-30 11:49:00,
2013-11-30 06:55:00,30.1,27.0,30.31,ENE,75,0.0,0.0,88,0.00,,,0.00,Wunderground v.1.15,2013-11-30 11:55:00,
2013-11-30 07:00:00,30.1,27.0,30.30,ENE,75,0.0,0.0,88,0.00,,,0.00,Wunderground v.1.15,2013-11-30 12:00:00,
2013-11-30 07:05:00,30.0,26.9,30.30,ENE,73,0.0,6.0,88,0.00,,,0.00,Wunderground v.1.15,2013-11-30 12:05:00,
2013-11-30 07:11:00,29.8,26.7,30.30,ENE,71,0.0,0.0,88,0.00,,,0.00,Wunderground v.1.15,2013-11-30 12:11:00,
2013-11-30 07:17:00,29.8,27.0,30.30,ENE,68,0.0,1.0,89,0.00,,,0.00,Wunderground v.1.15,2013-11-30 12:17:00,
2013-11-30 07:22:00,29.5,27.2,30.30,ENE,68,0.0,1.0,91,0.00,,,0.00,Wunderground v.1.15,2013-11-30 12:22:00,
2013-11-30 07:29:00,29.1,27.8,30.30,East,88,1.0,2.0,95,0.00,,,0.00,Wunderground v.1.15,2013-11-30 12:29:00,
2013-11-30 07:34:00,29.4,27.9,30.29,ENE,76,1.0,2.0,94,0.00,,,0.00,Wunderground v.1.15,2013-11-30 12:34:00,
2013-11-30 07:39:00,29.5,26.9,30.29,East,92,2.0,2.0,90,0.00,,,0.00,Wunderground v.1.15,2013-11-30 12:39:00,
2013-11-30 07:44:00,29.5,28.0,30.28,East,85,2.0,2.0,94,0.00,,,0.00,Wunderground v.1.15,2013-11-30 12:44:00,
2013-11-30 07:50:00,29.7,27.7,30.28,ENE,68,2.0,2.0,92,0.00,,,0.00,Wunderground v.1.15,2013-11-30 12:50:00,
2013-11-30 07:55:00,29.7,27.7,30.28,East,89,1.0,4.0,92,0.00,,,0.00,Wunderground v.1.15,2013-11-30 12:55:00,
2013-11-30 08:00:00,29.5,28.2,30.28,ENE,78,1.0,1.0,95,0.00,,,0.00,Wunderground v.1.15,2013-11-30 13:00:00,
2013-11-30 08:05:00,29.7,27.7,30.28,East,85,2.0,6.0,92,0.00,,,0.00,Wunderground v.1.15,2013-11-30 13:05:00,
2013-11-30 08:11:00,29.8,27.8,30.28,East,88,2.0,2.0,92,0.00,,,0.00,Wunderground v.1.15,2013-11-30 13:11:00,
2013-11-30 08:16:00,29.8,27.8,30.28,ESE,102,1.0,2.0,92,0.00,,,0.00,Wunderground v.1.15,2013-11-30 13:16:00,
2013-11-30 08:21:00,29.8,27.8,30.28,ESE,102,1.0,1.0,92,0.00,,,0.00,Wunderground v.1.15,2013-11-30 13:21:00,
2013-11-30 08:27:00,29.8,28.0,30.28,East,86,1.0,3.0,93,0.00,,,0.00,Wunderground v.1.15,2013-11-30 13:27:00,
2013-11-30 08:32:00,30.1,28.1,30.27,East,92,1.0,1.0,92,0.00,,,0.00,Wunderground v.1.15,2013-11-30 13:32:00,
2013-11-30 08:39:00,30.6,28.0,30.27,East,88,1.0,3.0,90,0.00,,,0.00,Wunderground v.1.15,2013-11-30 13:39:00,
2013-11-30 08:44:00,30.7,27.6,30.27,East,92,1.0,2.0,88,0.00,,,0.00,Wunderground v.1.15,2013-11-30 13:44:00,
2013-11-30 08:49:00,30.9,28.0,30.27,East,80,1.0,3.0,89,0.00,,,0.00,Wunderground v.1.15,2013-11-30 13:49:00,
2013-11-30 08:54:00,31.0,27.6,30.27,ESE,104,2.0,2.0,87,0.00,,,0.00,Wunderground v.1.15,2013-11-30 13:54:00,
2013-11-30 08:59:00,31.3,27.6,30.26,East,93,1.0,2.0,86,0.00,,,0.00,Wunderground v.1.15,2013-11-30 13:59:00,
2013-11-30 09:04:00,31.5,27.8,30.26,ESE,104,1.0,5.0,86,0.00,,,0.00,Wunderground v.1.15,2013-11-30 14:04:00,
2013-11-30 09:10:00,31.5,28.1,30.26,East,93,1.0,2.0,87,0.00,,,0.00,Wunderground v.1.15,2013-11-30 14:10:00,
2013-11-30 09:16:00,31.9,27.9,30.26,East,85,1.0,5.0,85,0.00,,,0.00,Wunderground v.1.15,2013-11-30 14:16:00,
2013-11-30 09:21:00,32.2,27.6,30.26,ENE,78,1.0,1.0,83,0.00,,,0.00,Wunderground v.1.15,2013-11-30 14:21:00,
2013-11-30 09:27:00,32.7,28.1,30.26,East,82,1.0,1.0,83,0.00,,,0.00,Wunderground v.1.15,2013-11-30 14:27:00,
2013-11-30 09:32:00,32.8,27.9,30.25,ENE,76,1.0,2.0,82,0.00,,,0.00,Wunderground v.1.15,2013-11-30 14:32:00,
2013-11-30 09:39:00,33.2,28.3,30.25,ENE,76,0.0,2.0,82,0.00,,,0.00,Wunderground v.1.15,2013-11-30 14:39:00,
2013-11-30 09:44:00,33.7,27.6,30.25,ESE,109,1.0,1.0,78,0.00,,,0.00,Wunderground v.1.15,2013-11-30 14:44:00,
2013-11-30 09:49:00,34.0,27.5,30.24,East,82,1.0,2.0,77,0.00,,,0.00,Wunderground v.1.15,2013-11-30 14:49:00,
2013-11-30 09:54:00,34.3,27.5,30.24,East,83,2.0,3.0,76,0.00,,,0.00,Wunderground v.1.15,2013-11-30 14:54:00,
2013-11-30 09:59:00,34.7,27.6,30.23,East,95,2.0,4.0,75,0.00,,,0.00,Wunderground v.1.15,2013-11-30 14:59:00,
2013-11-30 10:06:00,34.9,27.8,30.23,ENE,73,2.0,7.0,75,0.00,,,0.00,Wunderground v.1.15,2013-11-30 15:06:00,
2013-11-30 10:11:00,35.2,28.4,30.23,East,90,1.0,2.0,76,0.00,,,0.00,Wunderground v.1.15,2013-11-30 15:11:00,
2013-11-30 10:16:00,35.5,28.7,30.23,East,93,1.0,6.0,76,0.00,,,0.00,Wunderground v.1.15,2013-11-30 15:16:00,
2013-11-30 10:21:00,35.6,27.5,30.23,East,95,2.0,2.0,72,0.00,,,0.00,Wunderground v.1.15,2013-11-30 15:21:00,
2013-11-30 10:27:00,36.0,28.8,30.23,East,93,1.0,5.0,75,0.00,,,0.00,Wunderground v.1.15,2013-11-30 15:27:00,
2013-11-30 10:33:00,36.3,28.5,30.22,East,93,1.0,1.0,73,0.00,,,0.00,Wunderground v.1.15,2013-11-30 15:33:00,
2013-11-30 10:39:00,36.8,29.9,30.22,ENE,78,1.0,2.0,76,0.00,,,0.00,Wunderground v.1.15,2013-11-30 15:39:00,
2013-11-30 10:44:00,36.9,28.7,30.22,East,88,1.0,2.0,72,0.00,,,0.00,Wunderground v.1.15,2013-11-30 15:44:00,
2013-11-30 10:49:00,37.2,28.7,30.22,SE,130,1.0,7.0,71,0.00,,,0.00,Wunderground v.1.15,2013-11-30 15:49:00,
2013-11-30 10:55:00,37.6,29.4,30.22,East,90,1.0,3.0,72,0.00,,,0.00,Wunderground v.1.15,2013-11-30 15:55:00,
2013-11-30 11:00:00,38.0,29.4,30.22,ENE,71,1.0,1.0,71,0.00,,,0.00,Wunderground v.1.15,2013-11-30 16:00:00,
2013-11-30 11:06:00,38.5,29.6,30.22,ENE,66,1.0,6.0,70,0.00,,,0.00,Wunderground v.1.15,2013-11-30 16:06:00,
2013-11-30 11:11:00,38.8,28.8,30.22,East,80,1.0,1.0,67,0.00,,,0.00,Wunderground v.1.15,2013-11-30 16:11:00,
2013-11-30 11:17:00,39.1,29.1,30.21,East,95,1.0,2.0,67,0.00,,,0.00,Wunderground v.1.15,2013-11-30 16:17:00,
2013-11-30 11:22:00,39.3,28.9,30.21,ESE,107,1.0,2.0,66,0.00,,,0.00,Wunderground v.1.15,2013-11-30 16:22:00,
2013-11-30 11:27:00,39.8,29.4,30.21,ESE,119,0.0,2.0,66,0.00,,,0.00,Wunderground v.1.15,2013-11-30 16:27:00,
2013-11-30 11:34:00,40.1,29.6,30.19,East,96,0.0,2.0,66,0.00,,,0.00,Wunderground v.1.15,2013-11-30 16:34:00,
2013-11-30 11:39:00,40.1,30.0,30.19,East,79,1.0,5.0,67,0.00,,,0.00,Wunderground v.1.15,2013-11-30 16:39:00,
2013-11-30 11:44:00,40.1,29.6,30.19,East,85,2.0,6.0,66,0.00,,,0.00,Wunderground v.1.15,2013-11-30 16:44:00,
2013-11-30 11:50:00,40.1,30.4,30.18,SE,138,2.0,6.0,68,0.00,,,0.00,Wunderground v.1.15,2013-11-30 16:50:00,
2013-11-30 11:55:00,40.2,29.7,30.18,East,82,2.0,2.0,66,0.00,,,0.00,Wunderground v.1.15,2013-11-30 16:55:00,
2013-11-30 12:01:00,40.3,30.2,30.17,East,86,2.0,3.0,67,0.00,,,0.00,Wunderground v.1.15,2013-11-30 17:01:00,
2013-11-30 12:06:00,40.5,31.1,30.17,East,89,2.0,7.0,69,0.00,,,0.00,Wunderground v.1.15,2013-11-30 17:06:00,
2013-11-30 12:12:00,40.6,30.9,30.17,SE,130,1.0,2.0,68,0.00,,,0.00,Wunderground v.1.15,2013-11-30 17:12:00,
2013-11-30 12:18:00,40.8,31.4,30.16,SE,128,1.0,2.0,69,0.00,,,0.00,Wunderground v.1.15,2013-11-30 17:18:00,
2013-11-30 12:23:00,40.9,31.5,30.16,East,83,1.0,6.0,69,0.00,,,0.00,Wunderground v.1.15,2013-11-30 17:23:00,
2013-11-30 12:29:00,40.9,31.5,30.16,East,85,1.0,6.0,69,0.00,,,0.00,Wunderground v.1.15,2013-11-30 17:29:00,
2013-11-30 12:34:00,41.1,31.0,30.15,SE,138,1.0,1.0,67,0.00,,,0.00,Wunderground v.1.15,2013-11-30 17:34:00,
2013-11-30 12:40:00,41.2,30.7,30.15,ESE,106,1.0,2.0,66,0.00,,,0.00,Wunderground v.1.15,2013-11-30 17:40:00,
2013-11-30 12:45:00,41.3,30.0,30.14,SSE,154,1.0,5.0,64,0.00,,,0.00,Wunderground v.1.15,2013-11-30 17:45:00,
2013-11-30 12:50:00,41.5,31.0,30.14,East,79,1.0,2.0,66,0.00,,,0.00,Wunderground v.1.15,2013-11-30 17:50:00,
2013-11-30 12:56:00,41.6,31.1,30.14,ESE,113,1.0,2.0,66,0.00,,,0.01,Wunderground v.1.15,2013-11-30 17:56:00,
2013-11-30 13:01:00,41.8,30.9,30.13,East,100,1.0,1.0,65,0.00,,,0.01,Wunderground v.1.15,2013-11-30 18:01:00,
2013-11-30 13:06:00,41.9,30.6,30.13,ESE,102,1.0,12.0,64,0.00,,,0.01,Wunderground v.1.15,2013-11-30 18:06:00,
2013-11-30 13:11:00,42.1,31.6,30.13,East,80,2.0,2.0,66,0.00,,,0.01,Wunderground v.1.15,2013-11-30 18:11:00,
2013-11-30 13:17:00,42.1,31.2,30.13,East,99,3.0,5.0,65,0.00,,,0.01,Wunderground v.1.15,2013-11-30 18:17:00,
2013-11-30 13:22:00,42.1,31.6,30.13,East,88,2.0,2.0,66,0.00,,,0.01,Wunderground v.1.15,2013-11-30 18:22:00,
2013-11-30 13:28:00,42.2,31.6,30.13,East,96,1.0,2.0,66,0.00,,,0.01,Wunderground v.1.15,2013-11-30 18:28:00,
2013-11-30 13:34:00,42.3,32.8,30.12,East,83,1.0,3.0,69,0.00,,,0.01,Wunderground v.1.15,2013-11-30 18:34:00,
2013-11-30 13:39:00,42.3,32.1,30.12,ESE,107,0.0,3.0,67,0.00,,,0.01,Wunderground v.1.15,2013-11-30 18:39:00,
2013-11-30 13:45:00,42.5,31.9,30.11,East,96,1.0,5.0,66,0.00,,,0.01,Wunderground v.1.15,2013-11-30 18:45:00,
2013-11-30 13:50:00,42.6,32.8,30.11,East,82,1.0,5.0,68,0.00,,,0.01,Wunderground v.1.15,2013-11-30 18:50:00,
2013-11-30 13:56:00,42.8,33.0,30.11,SE,136,0.0,2.0,68,0.00,,,0.01,Wunderground v.1.15,2013-11-30 18:56:00,
2013-11-30 14:01:00,42.8,32.6,30.10,SE,138,0.0,0.0,67,0.00,,,0.01,Wunderground v.1.15,2013-11-30 19:01:00,
2013-11-30 14:06:00,42.9,33.4,30.10,East,80,0.0,11.0,69,0.00,,,0.01,Wunderground v.1.15,2013-11-30 19:06:00,
2013-11-30 14:12:00,42.9,31.9,30.10,East,97,1.0,5.0,65,0.00,,,0.01,Wunderground v.1.15,2013-11-30 19:12:00,
2013-11-30 14:18:00,42.9,32.3,30.08,East,89,1.0,5.0,66,0.00,,,0.01,Wunderground v.1.15,2013-11-30 19:18:00,
2013-11-30 14:23:00,43.1,31.4,30.08,East,92,2.0,6.0,63,0.00,,,0.01,Wunderground v.1.15,2013-11-30 19:23:00,
2013-11-30 14:29:00,43.2,32.6,30.08,East,82,3.0,6.0,66,0.00,,,0.01,Wunderground v.1.15,2013-11-30 19:29:00,
2013-11-30 14:34:00,43.2,33.0,30.08,East,95,2.0,3.0,67,0.00,,,0.01,Wunderground v.1.15,2013-11-30 19:34:00,
2013-11-30 14:39:00,43.5,32.1,30.08,ESE,114,1.0,4.0,64,0.00,,,0.01,Wunderground v.1.15,2013-11-30 19:39:00,
2013-11-30 14:45:00,43.3,32.7,30.07,ESE,114,1.0,1.0,66,0.00,,,0.02,Wunderground v.1.15,2013-11-30 19:45:00,
2013-11-30 14:51:00,43.3,32.3,30.07,ESE,114,0.0,1.0,65,0.00,,,0.02,Wunderground v.1.15,2013-11-30 19:51:00,
2013-11-30 14:56:00,43.5,32.5,30.07,East,90,1.0,3.0,65,0.04,,,0.03,Wunderground v.1.15,2013-11-30 19:56:00,
2013-11-30 15:01:00,43.5,32.5,30.06,East,93,1.0,1.0,65,0.04,,,0.03,Wunderground v.1.15,2013-11-30 20:01:00,
2013-11-30 15:06:00,43.5,32.9,30.06,East,93,0.0,6.0,66,0.04,,,0.03,Wunderground v.1.15,2013-11-30 20:06:00,
2013-11-30 15:12:00,43.6,32.6,30.06,East,80,0.0,0.0,65,0.04,,,0.04,Wunderground v.1.15,2013-11-30 20:12:00,
2013-11-30 15:17:00,43.6,33.0,30.06,East,80,0.0,1.0,66,0.04,,,0.04,Wunderground v.1.15,2013-11-30 20:17:00,
2013-11-30 15:22:00,43.5,33.6,30.06,East,82,0.0,1.0,68,0.04,,,0.04,Wunderground v.1.15,2013-11-30 20:22:00,
2013-11-30 15:28:00,43.5,32.5,30.06,East,96,1.0,1.0,65,0.00,,,0.04,Wunderground v.1.15,2013-11-30 20:28:00,
2013-11-30 15:34:00,43.8,33.6,30.06,East,96,0.0,2.0,67,0.00,,,0.05,Wunderground v.1.15,2013-11-30 20:34:00,
2013-11-30 15:39:00,43.9,34.4,30.06,East,96,0.0,2.0,69,0.00,,,0.05,Wunderground v.1.15,2013-11-30 20:39:00,
2013-11-30 15:44:00,43.9,32.9,30.06,East,96,0.0,0.0,65,0.04,,,0.06,Wunderground v.1.15,2013-11-30 20:44:00,
2013-11-30 15:50:00,43.8,33.9,30.06,East,96,0.0,0.0,68,0.04,,,0.06,Wunderground v.1.15,2013-11-30 20:50:00,
2013-11-30 15:56:00,43.8,33.9,30.06,East,96,0.0,0.0,68,0.04,,,0.06,Wunderground v.1.15,2013-11-30 20:56:00,
2013-11-30 16:01:00,43.6,34.5,30.06,East,96,0.0,0.0,70,0.04,,,0.06,Wunderground v.1.15,2013-11-30 21:01:00,
2013-11-30 16:06:00,43.5,35.1,30.06,SE,130,0.0,7.0,72,0.00,,,0.06,Wunderground v.1.15,2013-11-30 21:06:00,
2013-11-30 16:12:00,43.2,34.1,30.06,SE,130,0.0,0.0,70,0.00,,,0.06,Wunderground v.1.15,2013-11-30 21:12:00,
2013-11-30 16:18:00,43.2,34.4,30.05,East,97,0.0,0.0,71,0.00,,,0.07,Wunderground v.1.15,2013-11-30 21:18:00,
2013-11-30 16:24:00,43.5,33.3,30.05,East,79,0.0,2.0,67,0.00,,,0.07,Wunderground v.1.15,2013-11-30 21:24:00,
2013-11-30 16:29:00,43.5,33.6,30.05,ENE,78,0.0,2.0,68,0.00,,,0.07,Wunderground v.1.15,2013-11-30 21:29:00,
2013-11-30 16:35:00,43.3,33.4,30.05,ENE,78,0.0,0.0,68,0.00,,,0.07,Wunderground v.1.15,2013-11-30 21:35:00,
2013-11-30 16:41:00,43.1,33.6,30.05,ENE,78,0.0,0.0,69,0.00,,,0.07,Wunderground v.1.15,2013-11-30 21:41:00,
2013-11-30 16:46:00,42.8,34.0,30.05,ENE,78,0.0,0.0,71,0.00,,,0.07,Wunderground v.1.15,2013-11-30 21:46:00,
2013-11-30 16:52:00,42.3,33.6,30.05,ENE,75,0.0,0.0,71,0.00,,,0.08,Wunderground v.1.15,2013-11-30 21:52:00,
2013-11-30 16:57:00,42.2,34.2,30.05,ENE,76,0.0,0.0,73,0.00,,,0.08,Wunderground v.1.15,2013-11-30 21:57:00,
2013-11-30 17:03:00,41.8,34.1,30.05,ENE,76,0.0,3.0,74,0.00,,,0.08,Wunderground v.1.15,2013-11-30 22:03:00,
2013-11-30 17:09:00,41.3,33.6,30.05,ENE,76,0.0,3.0,74,0.00,,,0.08,Wunderground v.1.15,2013-11-30 22:09:00,
2013-11-30 17:15:00,41.1,33.4,30.05,ENE,76,0.0,1.0,74,0.00,,,0.08,Wunderground v.1.15,2013-11-30 22:15:00,
2013-11-30 17:20:00,40.8,33.8,30.05,ENE,76,0.0,0.0,76,0.00,,,0.08,Wunderground v.1.15,2013-11-30 22:20:00,
2013-11-30 17:26:00,40.5,34.2,30.05,ENE,76,0.0,0.0,78,0.00,,,0.08,Wunderground v.1.15,2013-11-30 22:26:00,
2013-11-30 17:31:00,40.1,34.4,30.04,ENE,76,0.0,0.0,80,0.00,,,0.09,Wunderground v.1.15,2013-11-30 22:31:00,
2013-11-30 17:37:00,39.6,33.9,30.04,ENE,76,0.0,0.0,80,0.00,,,0.09,Wunderground v.1.15,2013-11-30 22:37:00,
2013-11-30 17:42:00,39.3,33.6,30.04,ENE,76,0.0,0.0,80,0.00,,,0.09,Wunderground v.1.15,2013-11-30 22:42:00,
2013-11-30 17:48:00,39.1,33.5,30.05,ENE,76,0.0,0.0,80,0.00,,,0.09,Wunderground v.1.15,2013-11-30 22:48:00,
2013-11-30 17:53:00,38.8,33.8,30.05,ENE,76,0.0,0.0,82,0.00,,,0.09,Wunderground v.1.15,2013-11-30 22:53:00,
2013-11-30 17:59:00,38.2,34.7,30.05,ENE,76,0.0,0.0,87,0.00,,,0.09,Wunderground v.1.15,2013-11-30 22:59:00,
2013-11-30 18:05:00,38.0,34.2,30.05,ENE,76,0.0,3.0,86,0.00,,,0.09,Wunderground v.1.15,2013-11-30 23:05:00,
2013-11-30 18:11:00,37.9,34.1,30.05,ENE,76,0.0,0.0,86,0.00,,,0.09,Wunderground v.1.15,2013-11-30 23:11:00,
2013-11-30 18:16:00,37.6,34.1,30.04,ENE,76,0.0,0.0,87,0.00,,,0.09,Wunderground v.1.15,2013-11-30 23:16:00,
2013-11-30 18:21:00,37.6,34.1,30.04,ENE,76,0.0,0.0,87,0.00,,,0.09,Wunderground v.1.15,2013-11-30 23:21:00,
2013-11-30 18:27:00,37.5,34.0,30.04,ENE,76,0.0,0.0,87,0.00,,,0.09,Wunderground v.1.15,2013-11-30 23:27:00,
2013-11-30 18:32:00,37.5,34.0,30.04,ENE,76,0.0,1.0,87,0.00,,,0.09,Wunderground v.1.15,2013-11-30 23:32:00,
2013-11-30 18:38:00,37.0,34.1,30.04,ENE,76,0.0,1.0,89,0.00,,,0.09,Wunderground v.1.15,2013-11-30 23:38:00,
2013-11-30 18:43:00,36.8,35.5,30.04,ENE,76,0.0,0.0,95,0.00,,,0.09,Wunderground v.1.15,2013-11-30 23:43:00,
2013-11-30 18:49:00,36.0,36.0,30.04,ENE,76,0.0,0.0,100,0.00,,,0.09,Wunderground v.1.15,2013-11-30 23:49:00,
2013-11-30 18:55:00,35.8,35.5,30.04,ENE,76,0.0,0.0,99,0.00,,,0.09,Wunderground v.1.15,2013-11-30 23:55:00,
2013-11-30 19:00:00,35.8,35.0,30.04,ENE,76,0.0,0.0,97,0.00,,,0.09,Wunderground v.1.15,2013-12-01 00:00:00,
2013-11-30 19:06:00,36.2,34.4,30.04,ENE,76,0.0,0.0,93,0.00,,,0.09,Wunderground v.1.15,2013-12-01 00:06:00,
2013-11-30 19:11:00,36.3,34.2,30.04,ENE,76,0.0,0.0,92,0.00,,,0.09,Wunderground v.1.15,2013-12-01 00:11:00,
2013-11-30 19:16:00,36.5,34.4,30.04,ENE,76,0.0,0.0,92,0.00,,,0.09,Wunderground v.1.15,2013-12-01 00:16:00,
2013-11-30 19:22:00,36.6,33.9,30.04,ENE,76,0.0,0.0,90,0.00,,,0.09,Wunderground v.1.15,2013-12-01 00:22:00,
2013-11-30 19:27:00,36.8,33.9,30.04,ENE,76,0.0,0.0,89,0.00,,,0.09,Wunderground v.1.15,2013-12-01 00:27:00,
2013-11-30 19:32:00,36.9,33.7,30.04,ENE,76,0.0,0.0,88,0.00,,,0.09,Wunderground v.1.15,2013-12-01 00:32:00,
2013-11-30 19:38:00,36.9,33.7,30.04,ENE,76,0.0,0.0,88,0.00,,,0.09,Wunderground v.1.15,2013-12-01 00:38:00,
2013-11-30 19:43:00,37.0,33.5,30.04,ENE,76,0.0,0.0,87,0.00,,,0.09,Wunderground v.1.15,2013-12-01 00:43:00,
2013-11-30 19:49:00,37.5,33.1,30.04,ENE,76,0.0,0.0,84,0.00,,,0.09,Wunderground v.1.15,2013-12-01 00:49:00,
2013-11-30 19:54:00,37.6,33.5,30.04,ENE,78,0.0,0.0,85,0.00,,,0.09,Wunderground v.1.15,2013-12-01 00:54:00,
2013-11-30 20:00:00,37.6,33.8,30.04,ENE,76,0.0,0.0,86,0.00,,,0.09,Wunderground v.1.15,2013-12-01 01:00:00,
2013-11-30 20:05:00,37.6,33.2,30.04,ENE,78,0.0,1.0,84,0.00,,,0.09,Wunderground v.1.15,2013-12-01 01:05:00,
2013-11-30 20:11:00,37.8,33.4,30.04,ENE,78,0.0,0.0,84,0.00,,,0.09,Wunderground v.1.15,2013-12-01 01:11:00,
2013-11-30 20:16:00,37.6,33.2,30.03,ENE,76,0.0,0.0,84,0.00,,,0.09,Wunderground v.1.15,2013-12-01 01:16:00,
2013-11-30 20:22:00,37.6,32.9,30.03,ENE,78,0.0,0.0,83,0.00,,,0.09,Wunderground v.1.15,2013-12-01 01:22:00,
2013-11-30 20:28:00,37.8,33.1,30.03,ENE,78,0.0,0.0,83,0.00,,,0.10,Wunderground v.1.15,2013-12-01 01:28:00,
2013-11-30 20:34:00,38.0,33.0,30.03,ENE,78,0.0,0.0,82,0.00,,,0.10,Wunderground v.1.15,2013-12-01 01:34:00,
2013-11-30 20:39:00,38.2,33.2,30.03,ENE,78,0.0,0.0,82,0.00,,,0.10,Wunderground v.1.15,2013-12-01 01:39:00,
2013-11-30 20:44:00,38.2,33.2,30.03,ENE,78,0.0,0.0,82,0.00,,,0.10,Wunderground v.1.15,2013-12-01 01:44:00,
2013-11-30 20:50:00,38.3,33.3,30.03,ENE,78,0.0,0.0,82,0.00,,,0.10,Wunderground v.1.15,2013-12-01 01:50:00,
2013-11-30 20:55:00,38.3,34.2,30.03,ENE,78,0.0,0.0,85,0.00,,,0.10,Wunderground v.1.15,2013-12-01 01:55:00,
2013-11-30 21:01:00,38.6,33.6,30.03,ENE,78,0.0,2.0,82,0.00,,,0.10,Wunderground v.1.15,2013-12-01 02:01:00,
2013-11-30 21:06:00,39.1,33.5,30.03,ENE,78,0.0,2.0,80,0.00,,,0.10,Wunderground v.1.15,2013-12-01 02:06:00,
2013-11-30 21:12:00,39.1,33.8,30.03,ENE,78,0.0,0.0,81,0.00,,,0.10,Wunderground v.1.15,2013-12-01 02:12:00,
2013-11-30 21:17:00,39.2,33.2,30.03,South,181,0.0,0.0,79,0.00,,,0.10,Wunderground v.1.15,2013-12-01 02:17:00,
2013-11-30 21:23:00,39.5,33.2,30.03,South,181,0.0,0.0,78,0.00,,,0.10,Wunderground v.1.15,2013-12-01 02:23:00,
2013-11-30 21:29:00,39.6,33.0,30.03,South,181,0.0,0.0,77,0.00,,,0.10,Wunderground v.1.15,2013-12-01 02:29:00,
2013-11-30 21:34:00,39.9,33.3,30.04,South,181,0.0,0.0,77,0.00,,,0.10,Wunderground v.1.15,2013-12-01 02:34:00,
2013-11-30 21:39:00,39.9,32.9,30.04,South,181,0.0,0.0,76,0.00,,,0.10,Wunderground v.1.15,2013-12-01 02:39:00,
2013-11-30 21:45:00,40.1,33.8,30.04,SSE,155,0.0,2.0,78,0.00,,,0.10,Wunderground v.1.15,2013-12-01 02:45:00,
2013-11-30 21:50:00,40.1,33.1,30.04,SSE,155,0.0,0.0,76,0.00,,,0.10,Wunderground v.1.15,2013-12-01 02:50:00,
2013-11-30 21:55:00,40.1,32.8,30.04,SSE,155,0.0,0.0,75,0.00,,,0.10,Wunderground v.1.15,2013-12-01 02:55:00,
2013-11-30 22:01:00,40.1,33.5,30.04,SSE,155,0.0,1.0,77,0.00,,,0.10,Wunderground v.1.15,2013-12-01 03:01:00,
2013-11-30 22:06:00,39.9,33.3,30.04,SSE,155,0.0,1.0,77,0.00,,,0.10,Wunderground v.1.15,2013-12-01 03:06:00,
2013-11-30 22:12:00,39.6,33.6,30.04,SSE,155,0.0,0.0,79,0.00,,,0.11,Wunderground v.1.15,2013-12-01 03:12:00,
2013-11-30 22:17:00,39.3,33.6,30.03,SSE,155,0.0,0.0,80,0.00,,,0.11,Wunderground v.1.15,2013-12-01 03:17:00,
2013-11-30 22:24:00,39.2,33.2,30.03,SSE,155,0.0,0.0,79,0.00,,,0.11,Wunderground v.1.15,2013-12-01 03:24:00,
2013-11-30 22:29:00,38.9,33.3,30.03,SSE,155,0.0,0.0,80,0.00,,,0.11,Wunderground v.1.15,2013-12-01 03:29:00,
2013-11-30 22:34:00,38.6,33.0,30.03,SSE,155,0.0,0.0,80,0.00,,,0.11,Wunderground v.1.15,2013-12-01 03:34:00,
2013-11-30 22:39:00,38.6,33.0,30.03,SSE,155,0.0,0.0,80,0.00,,,0.11,Wunderground v.1.15,2013-12-01 03:39:00,
2013-11-30 22:45:00,38.3,32.7,30.03,SSE,155,0.0,0.0,80,0.00,,,0.11,Wunderground v.1.15,2013-12-01 03:45:00,
2013-11-30 22:50:00,38.2,32.6,30.03,SSE,155,0.0,0.0,80,0.00,,,0.11,Wunderground v.1.15,2013-12-01 03:50:00,
2013-11-30 22:56:00,38.0,32.4,30.03,SSE,155,0.0,0.0,80,0.00,,,0.11,Wunderground v.1.15,2013-12-01 03:56:00,
2013-11-30 23:01:00,38.0,32.7,30.02,SSE,155,0.0,5.0,81,0.00,,,0.11,Wunderground v.1.15,2013-12-01 04:01:00,
2013-11-30 23:07:00,37.9,32.6,30.02,SSE,155,0.0,5.0,81,0.00,,,0.11,Wunderground v.1.15,2013-12-01 04:07:00,
2013-11-30 23:14:00,37.6,32.3,30.02,SSE,155,0.0,0.0,81,0.00,,,0.11,Wunderground v.1.15,2013-12-01 04:14:00,
2013-11-30 23:19:00,37.6,32.6,30.02,SSE,155,0.0,0.0,82,0.00,,,0.11,Wunderground v.1.15,2013-12-01 04:19:00,
2013-11-30 23:24:00,37.3,32.3,30.02,SSE,155,0.0,0.0,82,0.00,,,0.11,Wunderground v.1.15,2013-12-01 04:24:00,
2013-11-30 23:29:00,37.2,32.5,30.02,SSE,155,0.0,0.0,83,0.00,,,0.11,Wunderground v.1.15,2013-12-01 04:29:00,
2013-11-30 23:34:00,37.2,32.5,30.01,SSE,155,0.0,0.0,83,0.00,,,0.11,Wunderground v.1.15,2013-12-01 04:34:00,
2013-11-30 23:40:00,37.0,32.6,30.01,SSE,155,0.0,0.0,84,0.00,,,0.11,Wunderground v.1.15,2013-12-01 04:40:00,
2013-11-30 23:45:00,36.9,32.5,30.01,SSE,155,0.0,0.0,84,0.00,,,0.11,Wunderground v.1.15,2013-12-01 04:45:00,
2013-11-30 23:51:00,37.0,32.6,30.01,SSE,155,0.0,0.0,84,0.00,,,0.11,Wunderground v.1.15,2013-12-01 04:51:00,
2013-11-30 23:56:00,37.0,32.6,30.01,SSE,155,0.0,0.0,84,0.00,,,0.11,Wunderground v.1.15,2013-12-01 04:56:00,